Time;durP1;ratioP1;P1;durP2;ratioP2;P2;SDS_P1;SDS_P2;PMS_P1;PMS_P2;Temp;Humidity;BMP_temperature;BMP_pressure;BME280_temperature;BME280_humidity;BME280_pressure;Samples;Min_cycle;Max_cycle;Signal;HPM_P1;HPM_P2
2022/04/26 03:36:59;;;;;;;16.35;11.18;;;7.40;99.90;;;;;;4786419;30;20130;-66
2022/04/26 03:39:25;;;;;;;14.98;11.02;;;7.50;99.90;;;;;;4787742;30;20141;-66
2022/04/26 03:41:51;;;;;;;18.17;11.13;;;7.50;99.90;;;;;;4786691;30;20446;-65
2022/04/26 03:44:17;;;;;;;18.67;11.45;;;7.50;99.90;;;;;;4787387;30;20134;-64
2022/04/26 03:46:42;;;;;;;17.13;10.63;;;7.40;99.90;;;;;;4786877;30;20062;-64
2022/04/26 03:49:08;;;;;;;15.10;10.73;;;7.40;99.90;;;;;;4787708;30;20066;-64
2022/04/26 03:51:33;;;;;;;16.05;11.30;;;7.40;99.90;;;;;;4771270;30;20059;-64
2022/04/26 03:53:59;;;;;;;18.45;10.23;;;7.40;99.90;;;;;;4786110;30;20059;-64
2022/04/26 03:56:25;;;;;;;19.20;10.80;;;7.30;99.90;;;;;;4771614;30;20063;-65
2022/04/26 03:58:50;;;;;;;17.77;10.68;;;7.30;99.90;;;;;;4786202;30;20055;-64
2022/04/26 04:01:16;;;;;;;17.35;10.55;;;7.30;99.90;;;;;;4785808;29;20054;-65
2022/04/26 04:03:41;;;;;;;18.55;10.52;;;7.30;99.90;;;;;;4770936;30;20055;-65
2022/04/26 04:06:07;;;;;;;21.65;10.02;;;7.30;99.90;;;;;;4771581;30;20070;-64
2022/04/26 04:08:33;;;;;;;15.45;10.68;;;7.20;99.90;;;;;;4771237;30;20055;-64
2022/04/26 04:10:58;;;;;;;18.42;10.88;;;7.20;99.90;;;;;;4770859;30;20091;-66
2022/04/26 04:13:24;;;;;;;16.90;10.65;;;7.20;99.90;;;;;;4787253;30;20055;-65
2022/04/26 04:15:50;;;;;;;16.55;10.23;;;7.20;99.90;;;;;;4786910;30;20090;-65
2022/04/26 04:21:00;;;;;;;20.20;9.98;;;7.20;99.90;;;;;;4787327;30;20536;-64
2022/04/26 04:23:26;;;;;;;18.15;10.65;;;7.20;99.90;;;;;;4771291;30;20094;-65
2022/04/26 04:25:52;;;;;;;18.13;11.15;;;7.20;99.90;;;;;;4771555;30;20140;-64
2022/04/26 04:28:17;;;;;;;16.65;9.52;;;7.20;99.90;;;;;;4771356;30;20222;-65
2022/04/26 04:30:43;;;;;;;17.83;9.60;;;7.20;99.90;;;;;;4786511;30;20067;-64
2022/04/26 04:33:09;;;;;;;15.88;10.13;;;7.20;99.90;;;;;;4786961;30;20091;-65
2022/04/26 04:35:34;;;;;;;23.33;11.07;;;7.30;99.90;;;;;;4785837;30;20055;-65
2022/04/26 04:38:00;;;;;;;17.38;9.55;;;7.30;99.90;;;;;;4788361;29;20055;-65
2022/04/26 04:40:25;;;;;;;15.43;9.85;;;7.30;99.90;;;;;;4788871;30;20122;-65
2022/04/26 04:42:51;;;;;;;15.82;10.55;;;7.30;99.90;;;;;;4774138;30;20063;-64
2022/04/26 04:45:16;;;;;;;17.33;10.05;;;7.30;99.90;;;;;;4790472;30;20102;-65
2022/04/26 04:47:42;;;;;;;17.88;9.68;;;7.30;99.90;;;;;;4788566;30;20120;-64
2022/04/26 04:50:08;;;;;;;14.93;10.65;;;7.30;99.90;;;;;;4774279;30;20146;-65
2022/04/26 04:52:33;;;;;;;16.80;9.57;;;7.40;99.90;;;;;;4788590;30;20122;-64
2022/04/26 04:54:59;;;;;;;16.70;9.10;;;7.40;99.90;;;;;;4789020;30;20058;-66
2022/04/26 04:57:25;;;;;;;15.68;9.45;;;7.40;99.90;;;;;;4773595;30;20109;-64
2022/04/26 04:59:50;;;;;;;16.38;8.65;;;7.40;99.90;;;;;;4774224;30;20055;-64
2022/04/26 05:02:16;;;;;;;15.05;9.27;;;7.40;99.90;;;;;;4773382;30;20473;-65
2022/04/26 05:04:42;;;;;;;15.27;9.80;;;7.40;99.90;;;;;;4789850;30;20063;-64
2022/04/26 05:07:09;;;;;;;16.63;9.20;;;7.40;99.90;;;;;;4788735;30;20059;-64
2022/04/26 05:09:34;;;;;;;19.27;9.60;;;7.40;99.90;;;;;;4789736;30;20108;-65
2022/04/26 05:12:00;;;;;;;18.63;9.38;;;7.50;99.90;;;;;;4773591;30;20059;-65
2022/04/26 05:14:25;;;;;;;15.00;8.73;;;7.50;99.90;;;;;;4774410;30;20450;-65
2022/04/26 05:16:51;;;;;;;16.73;9.10;;;7.50;99.90;;;;;;4789255;30;20067;-65
2022/04/26 05:19:16;;;;;;;13.63;8.82;;;7.40;99.90;;;;;;4773851;30;20097;-65
2022/04/26 05:21:42;;;;;;;14.82;8.93;;;7.50;99.90;;;;;;4788116;30;20055;-65
2022/04/26 05:26:52;;;;;;;13.57;7.45;;;7.50;99.90;;;;;;4787805;30;20063;-65
2022/04/26 05:29:17;;;;;;;15.40;8.50;;;7.50;99.90;;;;;;4789394;30;20073;-66
2022/04/26 05:31:43;;;;;;;14.35;8.77;;;7.60;99.90;;;;;;4788723;30;20098;-65
2022/04/26 05:34:08;;;;;;;11.77;7.55;;;7.60;99.90;;;;;;4773071;30;20078;-65
2022/04/26 05:36:34;;;;;;;12.18;8.00;;;7.60;99.90;;;;;;4789175;30;20055;-65
2022/04/26 05:39:01;;;;;;;14.02;7.80;;;7.60;99.90;;;;;;4773941;30;20060;-65
2022/04/26 05:41:26;;;;;;;14.15;7.95;;;7.60;99.90;;;;;;4787931;30;20129;-64
2022/04/26 05:43:52;;;;;;;13.50;8.20;;;7.70;99.90;;;;;;4788244;30;20059;-65
2022/04/26 05:46:17;;;;;;;14.95;8.18;;;7.70;99.90;;;;;;4772945;30;20088;-66
2022/04/26 05:48:43;;;;;;;13.90;7.35;;;7.60;99.90;;;;;;4787677;29;20066;-64
2022/04/26 05:51:08;;;;;;;11.25;7.63;;;7.70;99.90;;;;;;4787140;30;20055;-65
2022/04/26 05:53:35;;;;;;;13.07;7.80;;;7.70;99.90;;;;;;4772705;30;20070;-65
2022/04/26 05:56:01;;;;;;;11.98;7.00;;;7.80;99.90;;;;;;4788191;30;20062;-64
2022/04/26 05:58:27;;;;;;;13.15;6.93;;;7.70;99.90;;;;;;4788895;30;20381;-65
2022/04/26 06:00:52;;;;;;;12.93;6.50;;;7.70;99.90;;;;;;4772139;30;20135;-65
2022/04/26 06:03:18;;;;;;;11.95;7.05;;;7.80;99.90;;;;;;4787470;30;20059;-65
2022/04/26 06:05:43;;;;;;;15.63;7.28;;;7.80;99.90;;;;;;4787845;30;20104;-64
2022/04/26 06:08:09;;;;;;;8.38;6.28;;;7.80;99.90;;;;;;4772483;30;20150;-65
2022/04/26 06:10:38;;;;;;;12.85;6.47;;;7.90;99.90;;;;;;4772526;30;20135;-65
2022/04/26 06:13:03;;;;;;;10.00;6.40;;;7.90;99.90;;;;;;4788794;30;20377;-65
2022/04/26 06:15:29;;;;;;;14.23;6.43;;;8.00;99.90;;;;;;4786771;30;20055;-65
2022/04/26 06:17:54;;;;;;;12.23;6.53;;;8.10;99.90;;;;;;4787418;30;20058;-65
2022/04/26 06:20:23;;;;;;;11.88;6.68;;;8.10;99.90;;;;;;4788685;30;20090;-65
2022/04/26 06:22:49;;;;;;;11.48;6.90;;;8.10;99.90;;;;;;4772493;30;20601;-65
2022/04/26 06:25:14;;;;;;;12.93;6.32;;;8.20;99.90;;;;;;4772649;30;20079;-66
2022/04/26 06:27:40;;;;;;;11.38;6.38;;;8.20;99.90;;;;;;4787244;30;20051;-66
2022/04/26 06:30:06;;;;;;;9.82;6.20;;;8.30;99.90;;;;;;4772677;30;20055;-65
2022/04/26 06:32:32;;;;;;;11.05;5.80;;;8.40;99.90;;;;;;4772009;30;20051;-65
2022/04/26 06:34:57;;;;;;;13.73;5.88;;;8.40;99.90;;;;;;4787079;30;20435;-66
2022/04/26 06:37:23;;;;;;;14.57;6.85;;;8.60;99.90;;;;;;4788097;30;20062;-64
2022/04/26 06:39:53;;;;;;;10.70;5.75;;;8.70;99.90;;;;;;4787178;30;20051;-65
2022/04/26 06:42:19;;;;;;;12.75;5.40;;;8.80;99.90;;;;;;4772025;30;20553;-64
2022/04/26 06:44:45;;;;;;;6.10;5.22;;;9.00;99.90;;;;;;4772397;30;20052;-66
2022/04/26 06:47:10;;;;;;;8.38;5.38;;;9.20;99.90;;;;;;4786711;29;20069;-65
2022/04/26 06:49:36;;;;;;;10.80;5.20;;;9.30;99.90;;;;;;4772152;30;20218;-65
2022/04/26 06:52:02;;;;;;;12.18;5.00;;;9.40;99.90;;;;;;4787853;30;20073;-65
2022/04/26 06:54:27;;;;;;;11.65;4.78;;;9.60;99.90;;;;;;4786779;30;20213;-65
2022/04/26 06:56:53;;;;;;;6.97;4.50;;;9.70;99.90;;;;;;4788230;30;20062;-66
2022/04/26 06:59:18;;;;;;;9.13;4.82;;;9.90;99.90;;;;;;4772021;30;20055;-66
2022/04/26 07:01:45;;;;;;;7.95;4.95;;;10.10;99.90;;;;;;4770950;30;20081;-64
2022/04/26 07:04:11;;;;;;;9.27;4.47;;;10.20;99.90;;;;;;4787019;29;20051;-66
2022/04/26 07:06:39;;;;;;;8.85;4.78;;;10.30;99.90;;;;;;4786541;30;20130;-65
2022/04/26 07:09:05;;;;;;;5.90;3.90;;;10.20;99.90;;;;;;4788141;30;20070;-66
2022/04/26 07:11:30;;;;;;;7.20;4.20;;;10.10;99.90;;;;;;4787800;30;20054;-65
2022/04/26 07:13:57;;;;;;;9.57;4.15;;;10.00;99.90;;;;;;4786867;30;20055;-65
2022/04/26 07:16:23;;;;;;;10.13;4.45;;;10.00;99.90;;;;;;4771227;30;20070;-64
2022/04/26 07:18:49;;;;;;;7.57;4.30;;;9.90;99.90;;;;;;4787782;30;20058;-66
2022/04/26 07:21:14;;;;;;;6.55;4.50;;;9.90;99.90;;;;;;4786539;30;20127;-65
2022/04/26 07:23:40;;;;;;;6.43;4.35;;;9.90;99.90;;;;;;4786430;30;20487;-65
2022/04/26 07:26:06;;;;;;;7.05;3.88;;;9.90;99.90;;;;;;4787438;30;20055;-66
2022/04/26 07:28:32;;;;;;;7.07;4.57;;;9.80;99.90;;;;;;4771917;30;20059;-65
2022/04/26 07:30:58;;;;;;;8.80;4.50;;;9.80;99.90;;;;;;4771182;30;20065;-66
2022/04/26 07:36:09;;;;;;;14.60;4.32;;;9.60;99.90;;;;;;4787488;30;20059;-66
2022/04/26 07:38:36;;;;;;;8.50;4.00;;;9.70;99.90;;;;;;4771725;30;20126;-65
2022/04/26 07:41:02;;;;;;;9.05;4.38;;;9.80;99.90;;;;;;4787775;30;20063;-65
2022/04/26 07:43:28;;;;;;;9.52;4.38;;;9.90;99.90;;;;;;4786459;29;20063;-64
2022/04/26 07:45:54;;;;;;;5.60;3.63;;;10.00;99.90;;;;;;4786989;30;20062;-66
2022/04/26 07:48:21;;;;;;;8.65;4.35;;;10.00;99.90;;;;;;4786408;30;20063;-66
2022/04/26 07:50:48;;;;;;;11.23;4.38;;;10.10;99.90;;;;;;4771507;30;20098;-65
2022/04/26 07:53:13;;;;;;;8.00;3.85;;;10.10;99.90;;;;;;4786358;29;20062;-64
2022/04/26 07:55:39;;;;;;;6.85;3.53;;;10.20;99.90;;;;;;4771872;30;20066;-65
2022/04/26 07:58:05;;;;;;;7.75;3.50;;;10.30;99.90;;;;;;4787213;29;20482;-66
2022/04/26 08:00:30;;;;;;;6.03;3.30;;;10.30;99.90;;;;;;4786237;30;20501;-66
2022/04/26 08:02:56;;;;;;;7.63;3.55;;;10.30;99.90;;;;;;4786391;30;20093;-64
2022/04/26 08:05:22;;;;;;;6.50;3.72;;;10.40;99.90;;;;;;4771626;30;20468;-66
2022/04/26 08:07:49;;;;;;;7.20;3.10;;;10.40;99.90;;;;;;4787586;30;20134;-66
2022/04/26 08:10:15;;;;;;;7.93;3.38;;;10.40;99.90;;;;;;4771262;30;20063;-66
2022/04/26 08:12:42;;;;;;;7.40;2.95;;;10.50;99.90;;;;;;4787285;29;20425;-65
2022/04/26 08:15:10;;;;;;;5.82;2.88;;;10.50;99.90;;;;;;4791260;30;20128;-65
2022/04/26 08:17:37;;;;;;;5.50;2.83;;;10.70;99.90;;;;;;4789018;29;20108;-65
2022/04/26 08:20:06;;;;;;;6.45;3.60;;;10.70;99.90;;;;;;4791121;30;20127;-64
2022/04/26 08:22:31;;;;;;;6.53;3.20;;;10.70;99.90;;;;;;4789383;29;20079;-65
2022/04/26 08:27:41;;;;;;;9.73;3.38;;;11.00;99.90;;;;;;4790656;30;20079;-65
2022/04/26 08:30:09;;;;;;;6.88;3.15;;;11.10;99.90;;;;;;4789221;29;20501;-64
2022/04/26 08:32:45;;;;;;;8.13;3.20;;;11.20;99.90;;;;;;4774015;30;20413;-65
2022/04/26 08:35:20;;;;;;;9.00;2.90;;;11.20;99.90;;;;;;4789227;29;20421;-65
2022/04/26 08:37:45;;;;;;;7.45;3.40;;;11.20;99.90;;;;;;4790603;30;20055;-64
2022/04/26 08:40:15;;;;;;;5.45;3.08;;;11.20;99.90;;;;;;4790455;30;20082;-65
2022/04/26 08:42:42;;;;;;;5.85;3.30;;;11.30;99.90;;;;;;4774385;30;20362;-65
2022/04/26 08:45:11;;;;;;;8.27;3.15;;;11.40;99.90;;;;;;4790094;30;20067;-64
2022/04/26 08:53:08;;;;;;;6.38;3.13;;;11.60;99.90;;;;;;4788740;30;20055;-65
2022/04/26 08:55:45;;;;;;;6.40;3.35;;;11.70;99.90;;;;;;4773966;30;20051;-65
2022/04/26 08:58:13;;;;;;;6.53;3.03;;;11.80;99.90;;;;;;4790021;30;20062;-65
2022/04/26 09:00:40;;;;;;;7.10;3.10;;;12.00;99.90;;;;;;4788768;30;20175;-66
2022/04/26 09:03:07;;;;;;;7.70;3.10;;;12.10;99.90;;;;;;4789840;30;20473;-66
2022/04/26 09:05:33;;;;;;;4.65;2.80;;;12.10;99.90;;;;;;4789945;30;20069;-65
2022/04/26 09:07:59;;;;;;;7.45;3.63;;;12.10;99.90;;;;;;4788553;30;20051;-65
2022/04/26 09:10:26;;;;;;;7.80;3.22;;;12.10;99.90;;;;;;4788200;30;20067;-65
2022/04/26 09:13:07;;;;;;;5.95;3.30;;;12.30;99.90;;;;;;4789803;30;20055;-66
2022/04/26 09:15:41;;;;;;;5.88;3.58;;;12.40;99.90;;;;;;4788500;30;20454;-66
2022/04/26 09:18:20;;;;;;;6.93;3.30;;;12.60;99.90;;;;;;4789665;30;20065;-65
2022/04/26 09:20:48;;;;;;;7.40;3.38;;;12.90;99.90;;;;;;4789572;30;20091;-65
2022/04/26 09:23:27;;;;;;;5.20;3.47;;;13.10;99.90;;;;;;4788244;29;20056;-65
2022/04/26 09:26:15;;;;;;;6.03;3.13;;;13.20;99.90;;;;;;4789594;30;20362;-65
2022/04/26 09:28:45;;;;;;;7.10;3.40;;;13.30;99.90;;;;;;4788557;30;20527;-67
2022/04/26 09:31:20;;;;;;;5.35;3.30;;;13.30;99.90;;;;;;4773123;30;20170;-64
2022/04/26 09:33:47;;;;;;;4.95;2.70;;;13.20;99.90;;;;;;4789670;30;20063;-66
2022/04/26 09:36:15;;;;;;;7.53;3.20;;;13.40;99.90;;;;;;4773288;30;20059;-65
2022/04/26 09:38:49;;;;;;;6.28;3.28;;;13.60;99.90;;;;;;4789740;30;20444;-66
2022/04/26 09:41:15;;;;;;;7.70;3.92;;;13.80;99.90;;;;;;4788111;30;20131;-65
2022/04/26 09:43:41;;;;;;;4.90;3.50;;;13.80;99.90;;;;;;4773468;30;20135;-65
2022/04/26 09:46:08;;;;;;;9.52;3.70;;;13.50;99.90;;;;;;4787840;30;20067;-67
2022/04/26 09:48:38;;;;;;;6.85;3.47;;;13.30;99.90;;;;;;4789445;30;20059;-66
2022/04/26 09:51:05;;;;;;;6.50;3.83;;;13.20;99.90;;;;;;4788842;30;20116;-66
2022/04/26 09:53:32;;;;;;;4.80;3.30;;;13.40;99.90;;;;;;4789283;30;20059;-65
2022/04/26 09:55:59;;;;;;;5.72;3.10;;;13.80;99.90;;;;;;4787897;30;20059;-65
2022/04/26 09:58:27;;;;;;;5.68;3.03;;;14.00;99.90;;;;;;4789580;30;20065;-66
2022/04/26 10:00:54;;;;;;;4.95;3.03;;;13.90;99.90;;;;;;4772562;30;20059;-66
2022/04/26 10:03:24;;;;;;;5.78;2.85;;;13.80;99.90;;;;;;4787834;30;20066;-66
2022/04/26 10:06:00;;;;;;;4.60;3.10;;;13.60;99.90;;;;;;4788774;30;20063;-66
2022/04/26 10:08:28;;;;;;;4.53;3.25;;;13.40;99.90;;;;;;4788830;30;20461;-65
2022/04/26 10:10:55;;;;;;;4.82;3.38;;;13.20;99.90;;;;;;4788618;30;20078;-66
2022/04/26 10:13:35;;;;;;;4.47;3.17;;;13.30;99.90;;;;;;4772953;30;20059;-66
2022/04/26 10:16:09;;;;;;;5.30;2.90;;;13.50;99.90;;;;;;4787980;30;20573;-65
2022/04/26 10:18:38;;;;;;;5.25;2.83;;;13.60;99.90;;;;;;4788679;30;20111;-66
2022/04/26 10:21:05;;;;;;;4.85;3.28;;;13.50;99.90;;;;;;4788502;30;20067;-66
2022/04/26 10:23:51;;;;;;;6.07;3.25;;;13.50;99.90;;;;;;4772286;30;20131;-66
2022/04/26 10:26:23;;;;;;;6.53;3.17;;;13.70;99.90;;;;;;4784632;30;20107;-66
2022/04/26 10:29:01;;;;;;;4.10;2.90;;;14.00;99.90;;;;;;4787671;29;20059;-65
2022/04/26 10:31:38;;;;;;;5.32;3.20;;;14.10;94.10;;;;;;4786620;29;20075;-66
2022/04/26 10:34:31;;;;;;;4.68;3.10;;;14.10;95.10;;;;;;4788629;30;20121;-65
2022/04/26 10:37:21;;;;;;;5.45;2.75;;;13.90;97.90;;;;;;4786829;29;20063;-66
2022/04/26 10:39:59;;;;;;;5.43;3.00;;;13.80;98.60;;;;;;4788777;30;20112;-66
2022/04/26 10:42:35;;;;;;;6.90;3.97;;;13.90;95.70;;;;;;4771899;30;20066;-66
2022/04/26 10:45:10;;;;;;;5.18;3.50;;;14.10;96.80;;;;;;4772276;30;20482;-67
2022/04/26 10:47:36;;;;;;;4.90;3.65;;;14.30;84.60;;;;;;4788020;30;20078;-64
2022/04/26 10:50:05;;;;;;;4.65;3.00;;;14.50;94.40;;;;;;4772102;30;20100;-66
2022/04/26 10:52:36;;;;;;;6.38;3.15;;;14.50;91.60;;;;;;4787071;29;20059;-65
2022/04/26 10:55:03;;;;;;;4.83;3.27;;;14.20;88.20;;;;;;4788538;30;20091;-67
2022/04/26 10:57:45;;;;;;;4.55;3.10;;;14.20;90.30;;;;;;4787085;30;20410;-65
2022/04/26 11:00:20;;;;;;;4.70;3.25;;;14.30;89.30;;;;;;4788170;30;20059;-65
2022/04/26 11:02:48;;;;;;;4.07;2.95;;;14.40;82.70;;;;;;4787845;30;20055;-66
2022/04/26 11:05:17;;;;;;;6.50;3.67;;;14.50;84.30;;;;;;4787925;30;20581;-65
2022/04/26 11:07:48;;;;;;;4.45;3.20;;;14.40;83.50;;;;;;4771924;30;20108;-66
2022/04/26 11:10:17;;;;;;;4.68;3.03;;;14.30;81.70;;;;;;4786654;29;20138;-66
2022/04/26 11:12:43;;;;;;;6.28;2.95;;;14.40;81.20;;;;;;4787018;29;20067;-66
2022/04/26 11:15:10;;;;;;;5.30;3.20;;;14.60;80.10;;;;;;4787895;30;20554;-66
2022/04/26 11:17:37;;;;;;;5.90;3.20;;;14.80;77.70;;;;;;4787671;30;20382;-66
2022/04/26 11:20:13;;;;;;;4.28;3.10;;;15.10;75.40;;;;;;4787882;30;20055;-66
2022/04/26 11:22:48;;;;;;;4.97;2.95;;;15.00;71.60;;;;;;4787770;30;20107;-66
2022/04/26 11:28:18;;;;;;;4.88;2.75;;;14.70;72.90;;;;;;4786207;30;20134;-67
2022/04/26 11:30:54;;;;;;;3.80;2.85;;;14.70;75.10;;;;;;4787316;30;20138;-66
2022/04/26 11:33:24;;;;;;;4.18;2.92;;;14.90;73.60;;;;;;4771691;30;20105;-66
2022/04/26 11:35:56;;;;;;;5.95;2.72;;;14.80;73.30;;;;;;4786128;30;20063;-65
2022/04/26 11:38:22;;;;;;;5.80;2.58;;;15.00;72.80;;;;;;4786526;30;20133;-64
2022/04/26 11:40:54;;;;;;;5.93;2.75;;;15.00;70.50;;;;;;4787367;30;20222;-66
2022/04/26 11:43:23;;;;;;;3.17;2.88;;;15.00;69.60;;;;;;4786302;30;20489;-65
2022/04/26 11:45:51;;;;;;;4.40;2.92;;;15.00;68.90;;;;;;4785571;30;20123;-65
2022/04/26 11:48:19;;;;;;;4.80;2.88;;;15.10;67.90;;;;;;4790809;29;20459;-66
2022/04/26 11:50:48;;;;;;;6.57;3.17;;;15.20;68.10;;;;;;4774994;30;20382;-63
2022/04/26 11:53:19;;;;;;;5.65;2.80;;;15.20;67.00;;;;;;4790004;30;20035;-64
2022/04/26 11:55:51;;;;;;;4.57;2.90;;;15.10;67.10;;;;;;4789606;30;20047;-65
2022/04/26 11:58:19;;;;;;;4.22;2.90;;;15.00;67.40;;;;;;4791053;30;20043;-65
2022/04/26 12:00:57;;;;;;;4.20;2.85;;;15.10;67.40;;;;;;4774277;30;20054;-65
2022/04/26 12:03:29;;;;;;;4.30;2.50;;;15.20;65.20;;;;;;4790104;30;20086;-64
2022/04/26 12:06:07;;;;;;;3.40;2.72;;;15.10;64.50;;;;;;4791011;30;20066;-66
2022/04/26 12:08:38;;;;;;;6.05;2.50;;;15.00;64.00;;;;;;4791142;30;20062;-65
2022/04/26 12:11:21;;;;;;;4.30;2.43;;;15.00;64.70;;;;;;4790567;30;20417;-66
2022/04/26 12:14:17;;;;;;;6.35;2.60;;;15.10;62.20;;;;;;4790045;30;20063;-65
2022/04/26 12:16:45;;;;;;;4.35;2.67;;;15.20;64.40;;;;;;4790519;30;20105;-65
2022/04/26 12:19:11;;;;;;;3.28;2.50;;;15.40;64.40;;;;;;4789761;29;20059;-66
2022/04/26 12:21:59;;;;;;;4.60;2.75;;;15.50;62.90;;;;;;4774704;30;20055;-65
2022/04/26 12:24:29;;;;;;;4.43;2.47;;;15.60;61.00;;;;;;4790987;30;20244;-66
2022/04/26 12:27:04;;;;;;;5.25;2.47;;;15.60;61.40;;;;;;4774625;30;20054;-65
2022/04/26 12:29:41;;;;;;;3.53;2.10;;;15.70;58.90;;;;;;4789431;30;20425;-65
2022/04/26 12:32:15;;;;;;;3.38;2.15;;;15.60;58.50;;;;;;4790279;30;20051;-65
2022/04/26 12:34:50;;;;;;;4.40;2.38;;;15.60;60.10;;;;;;4790492;30;20116;-64
2022/04/26 12:37:27;;;;;;;3.20;2.25;;;15.60;58.60;;;;;;4789318;29;20134;-65
2022/04/26 12:40:04;;;;;;;4.50;2.72;;;15.50;59.20;;;;;;4790261;30;20051;-65
2022/04/26 12:42:34;;;;;;;6.28;2.67;;;15.50;58.80;;;;;;4788951;30;20059;-66
2022/04/26 12:45:21;;;;;;;4.38;2.17;;;15.50;59.50;;;;;;4789313;30;20044;-65
2022/04/26 12:50:48;;;;;;;4.97;2.53;;;15.50;59.40;;;;;;4789254;30;20054;-65
2022/04/26 12:53:23;;;;;;;3.75;2.42;;;15.60;60.00;;;;;;4790389;30;20442;-65
2022/04/26 12:55:49;;;;;;;3.97;2.60;;;15.80;59.30;;;;;;4788629;29;20099;-65
2022/04/26 12:58:17;;;;;;;4.38;2.15;;;16.00;59.70;;;;;;4790079;29;20097;-65
2022/04/26 13:00:50;;;;;;;5.95;3.00;;;15.90;59.00;;;;;;4773717;30;20146;-64
2022/04/26 13:03:20;;;;;;;4.65;2.50;;;15.90;59.00;;;;;;4774371;30;20120;-64
2022/04/26 13:05:47;;;;;;;5.88;2.30;;;15.90;58.40;;;;;;4790093;30;20071;-65
2022/04/26 13:08:15;;;;;;;4.90;2.63;;;15.80;57.90;;;;;;4774435;30;20134;-66
2022/04/26 13:10:41;;;;;;;3.60;2.20;;;16.00;58.00;;;;;;4788521;30;20059;-65
2022/04/26 13:13:08;;;;;;;5.43;2.63;;;15.90;58.10;;;;;;4790196;30;20222;-65
2022/04/26 13:15:34;;;;;;;4.88;2.70;;;16.00;58.20;;;;;;4788265;29;20112;-65
2022/04/26 13:18:00;;;;;;;4.72;2.55;;;16.00;58.00;;;;;;4789835;30;20455;-65
2022/04/26 13:20:26;;;;;;;3.90;2.70;;;16.10;58.00;;;;;;4788263;29;20067;-65
2022/04/26 13:22:52;;;;;;;3.88;2.63;;;16.30;58.80;;;;;;4788480;30;20060;-65
2022/04/26 13:25:17;;;;;;;4.18;2.63;;;16.50;57.70;;;;;;4789980;30;20169;-66
2022/04/26 13:27:46;;;;;;;3.47;2.40;;;16.50;57.10;;;;;;4789685;30;20078;-64
2022/04/26 13:30:12;;;;;;;3.33;2.33;;;16.20;57.00;;;;;;4788451;30;20063;-64
2022/04/26 13:32:39;;;;;;;3.92;2.42;;;16.10;56.50;;;;;;4789126;30;20066;-64
2022/04/26 13:35:05;;;;;;;3.65;2.40;;;16.00;56.70;;;;;;4789618;30;20136;-66
2022/04/26 13:37:32;;;;;;;5.60;2.42;;;16.00;56.70;;;;;;4758702;30;20055;-65
2022/04/26 13:39:59;;;;;;;5.22;2.40;;;16.10;56.50;;;;;;4773140;30;20043;-65
2022/04/26 13:42:27;;;;;;;4.90;2.40;;;16.20;56.30;;;;;;4788195;30;20055;-64
2022/04/26 13:44:57;;;;;;;3.58;2.20;;;15.80;55.00;;;;;;4773325;30;20118;-64
2022/04/26 13:47:23;;;;;;;4.18;2.50;;;15.70;55.80;;;;;;4789004;30;20093;-64
2022/04/26 13:49:49;;;;;;;3.30;2.50;;;15.50;55.60;;;;;;4789148;30;20169;-64
2022/04/26 13:52:15;;;;;;;3.97;2.60;;;15.20;56.30;;;;;;4789195;30;20154;-64
2022/04/26 13:54:42;;;;;;;3.95;2.58;;;15.10;57.20;;;;;;4789111;30;20138;-65
2022/04/26 13:57:08;;;;;;;4.05;2.47;;;15.10;57.50;;;;;;4789324;30;20062;-64
2022/04/26 13:59:34;;;;;;;2.72;2.15;;;15.10;57.30;;;;;;4789325;30;20067;-65
2022/04/26 14:02:00;;;;;;;4.25;2.22;;;15.20;57.50;;;;;;4788673;30;20085;-64
2022/04/26 14:04:26;;;;;;;3.15;2.40;;;15.40;57.20;;;;;;4789211;30;20164;-65
2022/04/26 14:06:52;;;;;;;3.30;2.40;;;15.50;57.10;;;;;;4789055;30;20067;-65
2022/04/26 14:09:18;;;;;;;3.63;2.25;;;15.60;57.40;;;;;;4772613;29;20078;-65
2022/04/26 14:11:47;;;;;;;3.22;2.50;;;15.70;57.60;;;;;;4787767;30;20139;-65
2022/04/26 14:22:31;;;;;;;2.88;2.40;;;15.70;57.60;;;;;;4788609;30;20055;-65
2022/04/26 14:25:02;;;;;;;4.22;2.80;;;15.70;57.10;;;;;;4788933;30;20138;-65
2022/04/26 14:27:28;;;;;;;3.72;2.60;;;15.80;56.70;;;;;;4788641;30;20104;-64
2022/04/26 14:29:54;;;;;;;3.45;2.38;;;15.80;56.90;;;;;;4788893;30;20062;-65
2022/04/26 14:32:20;;;;;;;2.95;2.28;;;15.90;57.00;;;;;;4788281;30;20512;-65
2022/04/26 14:34:46;;;;;;;5.47;2.40;;;15.80;57.20;;;;;;4788950;30;20067;-65
2022/04/26 14:37:12;;;;;;;3.70;2.38;;;15.90;57.00;;;;;;4788570;30;20108;-65
2022/04/26 14:39:38;;;;;;;4.68;2.35;;;16.00;57.00;;;;;;4788261;30;20117;-64
2022/04/26 14:42:05;;;;;;;4.97;2.58;;;16.10;56.30;;;;;;4788366;30;20055;-65
2022/04/26 14:44:31;;;;;;;3.58;2.30;;;16.10;56.20;;;;;;4787232;30;20138;-65
2022/04/26 14:46:57;;;;;;;5.50;2.63;;;16.10;56.60;;;;;;4771566;30;20134;-65
2022/04/26 14:49:23;;;;;;;5.07;2.45;;;16.00;55.90;;;;;;4788470;30;20087;-65
2022/04/26 14:51:48;;;;;;;3.45;2.20;;;15.80;56.20;;;;;;4788628;30;20516;-65
2022/04/26 14:54:14;;;;;;;5.13;2.63;;;15.50;57.00;;;;;;4786937;29;20108;-65
2022/04/26 14:56:39;;;;;;;2.88;2.35;;;15.30;57.50;;;;;;4787097;30;20182;-65
2022/04/26 14:59:07;;;;;;;4.10;2.65;;;15.30;57.70;;;;;;4788060;30;20463;-65
2022/04/26 15:01:34;;;;;;;4.00;2.60;;;15.10;57.40;;;;;;4788104;30;20055;-64
2022/04/26 15:04:00;;;;;;;2.47;2.28;;;15.20;57.80;;;;;;4787788;30;20055;-64
2022/04/26 15:06:25;;;;;;;6.10;2.58;;;15.10;58.10;;;;;;4772190;30;20065;-65
2022/04/26 15:11:35;;;;;;;3.13;2.58;;;14.60;59.00;;;;;;4787450;30;20463;-65
2022/04/26 15:16:49;;;;;;;3.25;2.80;;;14.70;59.50;;;;;;4787432;30;20059;-66
2022/04/26 15:19:15;;;;;;;4.07;2.67;;;14.70;59.20;;;;;;4788021;30;20051;-65
2022/04/26 15:21:43;;;;;;;4.45;2.80;;;14.80;59.40;;;;;;4788148;30;20052;-66
2022/04/26 15:24:10;;;;;;;4.43;2.92;;;14.80;59.50;;;;;;4787864;30;20516;-66
2022/04/26 15:26:36;;;;;;;4.65;2.92;;;14.80;59.90;;;;;;4788135;30;20519;-65
2022/04/26 15:29:03;;;;;;;5.70;2.92;;;14.70;60.40;;;;;;4787643;30;20497;-66
2022/04/26 15:31:28;;;;;;;5.53;3.05;;;14.80;60.80;;;;;;4787478;30;20112;-66
2022/04/26 15:33:54;;;;;;;3.45;2.42;;;14.80;60.90;;;;;;4787757;30;20047;-65
2022/04/26 15:36:20;;;;;;;4.40;3.10;;;14.60;61.00;;;;;;4787908;30;20051;-65
2022/04/26 15:38:47;;;;;;;6.53;2.88;;;14.60;61.20;;;;;;4787704;30;20059;-66
2022/04/26 15:41:13;;;;;;;5.25;2.85;;;14.60;61.40;;;;;;4787690;30;20090;-65
2022/04/26 15:43:40;;;;;;;3.42;3.00;;;14.50;61.60;;;;;;4786423;30;20069;-65
2022/04/26 15:46:10;;;;;;;3.65;2.85;;;14.50;61.70;;;;;;4787340;30;20055;-64
2022/04/26 15:48:42;;;;;;;6.45;2.65;;;14.60;61.70;;;;;;4787789;30;20112;-66
2022/04/26 15:51:08;;;;;;;3.63;3.08;;;14.50;61.40;;;;;;4787471;30;20147;-65
2022/04/26 15:53:34;;;;;;;5.15;2.75;;;14.50;61.70;;;;;;4771317;30;20516;-65
2022/04/26 15:56:00;;;;;;;5.80;2.92;;;14.40;62.00;;;;;;4787352;30;20051;-65
2022/04/26 15:58:26;;;;;;;3.55;2.53;;;14.60;62.30;;;;;;4786728;30;20087;-65
2022/04/26 16:00:54;;;;;;;3.55;2.50;;;14.40;61.90;;;;;;4787175;30;20481;-64
2022/04/26 16:03:19;;;;;;;4.13;3.00;;;14.20;61.90;;;;;;4787449;30;20105;-65
2022/04/26 16:05:45;;;;;;;3.33;2.47;;;14.20;62.40;;;;;;4771547;30;20055;-65
2022/04/26 16:08:11;;;;;;;3.67;2.88;;;14.00;62.50;;;;;;4787297;30;20138;-66
2022/04/26 16:21:33;;;;;;;4.78;2.55;;;13.90;63.90;;;;;;4787357;30;20085;-64
2022/04/26 16:24:00;;;;;;;4.53;2.80;;;13.90;64.00;;;;;;4785824;30;20056;-64
2022/04/26 16:26:27;;;;;;;5.60;3.13;;;13.90;63.70;;;;;;4787505;30;20063;-64
2022/04/26 16:28:53;;;;;;;6.80;3.10;;;13.90;63.80;;;;;;4787239;30;20078;-65
2022/04/26 16:31:24;;;;;;;4.30;2.42;;;13.80;63.90;;;;;;4786966;30;20124;-65
2022/04/26 16:33:50;;;;;;;4.80;2.78;;;13.80;63.90;;;;;;4788227;29;20055;-64
2022/04/26 16:36:17;;;;;;;4.32;2.90;;;13.50;64.20;;;;;;4774243;30;20060;-64
2022/04/26 16:38:43;;;;;;;3.97;2.70;;;13.40;64.50;;;;;;4790806;30;20052;-64
2022/04/26 16:41:09;;;;;;;7.07;3.08;;;13.20;65.20;;;;;;4790991;30;20051;-64
2022/04/26 16:43:34;;;;;;;6.43;3.17;;;13.00;65.80;;;;;;4790590;30;20054;-64
2022/04/26 16:46:03;;;;;;;4.47;2.83;;;12.90;66.70;;;;;;4789196;29;20464;-65
2022/04/26 16:48:28;;;;;;;5.03;2.90;;;12.70;67.40;;;;;;4790832;30;20116;-64
2022/04/26 16:50:57;;;;;;;6.63;3.10;;;12.60;68.10;;;;;;4790350;30;20497;-64
2022/04/26 16:53:23;;;;;;;4.75;2.95;;;12.60;69.00;;;;;;4774326;30;20082;-65
2022/04/26 16:55:48;;;;;;;4.22;2.80;;;12.60;69.70;;;;;;4774368;30;20062;-65
2022/04/26 16:58:16;;;;;;;4.60;3.38;;;12.60;70.90;;;;;;4774489;30;20623;-65
2022/04/26 17:00:44;;;;;;;6.07;2.83;;;12.60;71.90;;;;;;4774014;30;20070;-64
2022/04/26 17:03:10;;;;;;;5.18;2.95;;;12.60;71.40;;;;;;4790021;30;20057;-65
2022/04/26 17:05:36;;;;;;;4.72;2.88;;;12.70;71.40;;;;;;4790286;30;20059;-66
2022/04/26 17:08:02;;;;;;;4.78;2.67;;;12.60;71.40;;;;;;4790211;30;20066;-66
2022/04/26 17:10:28;;;;;;;4.75;2.88;;;12.50;72.10;;;;;;4774147;30;20068;-65
2022/04/26 17:12:54;;;;;;;4.80;3.00;;;12.50;73.20;;;;;;4774173;30;20520;-65